sensor_id;sensor_type;location;lat;lon;timestamp;pressure;altitude;pressure_sealevel;temperature;humidity
46782;BME280;32541;46.298;11.506;2022-11-20T00:00:28;88707.94;;;0.39;72.17
46782;BME280;32541;46.298;11.506;2022-11-20T00:02:53;88712.63;;;0.31;72.39
46782;BME280;32541;46.298;11.506;2022-11-20T00:05:19;88712.44;;;0.29;73.08
46782;BME280;32541;46.298;11.506;2022-11-20T00:07:45;88716.22;;;0.26;72.81
46782;BME280;32541;46.298;11.506;2022-11-20T00:10:11;88716.94;;;0.34;72.01
46782;BME280;32541;46.298;11.506;2022-11-20T00:12:37;88709.56;;;0.34;72.34
46782;BME280;32541;46.298;11.506;2022-11-20T00:15:03;88707.03;;;0.29;73.21
46782;BME280;32541;46.298;11.506;2022-11-20T00:17:28;88710.25;;;0.20;72.83
46782;BME280;32541;46.298;11.506;2022-11-20T00:19:53;88709.16;;;0.23;72.74
46782;BME280;32541;46.298;11.506;2022-11-20T00:22:19;88714.53;;;0.08;73.19
46782;BME280;32541;46.298;11.506;2022-11-20T00:24:44;88710.56;;;0.09;73.59
46782;BME280;32541;46.298;11.506;2022-11-20T00:27:10;88718.34;;;0.20;72.48
46782;BME280;32541;46.298;11.506;2022-11-20T00:29:35;88724.25;;;0.11;73.38
46782;BME280;32541;46.298;11.506;2022-11-20T00:32:01;88719.75;;;0.06;73.41
46782;BME280;32541;46.298;11.506;2022-11-20T00:34:26;88720.66;;;0.16;71.86
46782;BME280;32541;46.298;11.506;2022-11-20T00:36:51;88721.00;;;0.05;73.74
46782;BME280;32541;46.298;11.506;2022-11-20T00:39:17;88726.91;;;-0.05;73.29
46782;BME280;32541;46.298;11.506;2022-11-20T00:41:42;88724.38;;;-0.03;72.92
46782;BME280;32541;46.298;11.506;2022-11-20T00:44:07;88723.13;;;-0.02;73.32
46782;BME280;32541;46.298;11.506;2022-11-20T00:46:33;88734.13;;;0.00;73.18
46782;BME280;32541;46.298;11.506;2022-11-20T00:48:59;88730.75;;;0.08;72.61
46782;BME280;32541;46.298;11.506;2022-11-20T00:51:26;88735.03;;;0.03;72.41
46782;BME280;32541;46.298;11.506;2022-11-20T00:53:51;88739.88;;;-0.03;73.14
46782;BME280;32541;46.298;11.506;2022-11-20T00:56:18;88740.50;;;-0.18;73.68
46782;BME280;32541;46.298;11.506;2022-11-20T00:58:45;88734.00;;;-0.22;73.67
46782;BME280;32541;46.298;11.506;2022-11-20T01:01:22;88734.78;;;-0.14;73.88
46782;BME280;32541;46.298;11.506;2022-11-20T01:03:50;88748.28;;;-0.14;73.70
46782;BME280;32541;46.298;11.506;2022-11-20T01:06:16;88751.13;;;-0.20;73.81
46782;BME280;32541;46.298;11.506;2022-11-20T01:08:43;88754.22;;;-0.16;73.02
46782;BME280;32541;46.298;11.506;2022-11-20T01:11:11;88753.16;;;-0.13;72.98
46782;BME280;32541;46.298;11.506;2022-11-20T01:13:38;88753.31;;;-0.18;73.52
46782;BME280;32541;46.298;11.506;2022-11-20T01:18:29;88757.41;;;-0.25;73.18
46782;BME280;32541;46.298;11.506;2022-11-20T01:20:55;88758.19;;;-0.17;73.30
46782;BME280;32541;46.298;11.506;2022-11-20T01:23:20;88756.16;;;-0.24;74.07
46782;BME280;32541;46.298;11.506;2022-11-20T01:25:45;88752.78;;;-0.17;73.40
46782;BME280;32541;46.298;11.506;2022-11-20T01:28:11;88752.19;;;-0.23;73.42
46782;BME280;32541;46.298;11.506;2022-11-20T01:30:36;88752.94;;;-0.15;73.84
46782;BME280;32541;46.298;11.506;2022-11-20T01:33:02;88755.66;;;-0.15;73.48
46782;BME280;32541;46.298;11.506;2022-11-20T01:35:27;88761.94;;;-0.20;73.11
46782;BME280;32541;46.298;11.506;2022-11-20T01:37:52;88761.94;;;-0.20;73.48
46782;BME280;32541;46.298;11.506;2022-11-20T01:40:18;88770.03;;;-0.20;74.32
46782;BME280;32541;46.298;11.506;2022-11-20T01:42:53;88771.91;;;-0.35;74.21
46782;BME280;32541;46.298;11.506;2022-11-20T01:46:15;88763.78;;;-0.43;73.95
46782;BME280;32541;46.298;11.506;2022-11-20T01:48:55;88767.84;;;-0.57;74.29
46782;BME280;32541;46.298;11.506;2022-11-20T01:51:34;88764.84;;;-0.46;74.12
46782;BME280;32541;46.298;11.506;2022-11-20T01:54:04;88762.81;;;-0.53;75.23
46782;BME280;32541;46.298;11.506;2022-11-20T01:56:33;88764.22;;;-0.60;75.38
46782;BME280;32541;46.298;11.506;2022-11-20T01:59:04;88767.84;;;-0.57;74.80
46782;BME280;32541;46.298;11.506;2022-11-20T02:01:31;88760.31;;;-0.51;74.60
46782;BME280;32541;46.298;11.506;2022-11-20T02:03:56;88764.22;;;-0.60;74.43
46782;BME280;32541;46.298;11.506;2022-11-20T02:06:31;88765.97;;;-0.62;74.86
46782;BME280;32541;46.298;11.506;2022-11-20T02:08:59;88758.09;;;-0.60;74.95
46782;BME280;32541;46.298;11.506;2022-11-20T02:11:25;88764.09;;;-0.54;74.45
46782;BME280;32541;46.298;11.506;2022-11-20T02:13:50;88762.94;;;-0.59;74.74
46782;BME280;32541;46.298;11.506;2022-11-20T02:16:25;88766.56;;;-0.56;74.32
46782;BME280;32541;46.298;11.506;2022-11-20T02:18:51;88765.13;;;-0.57;74.43
46782;BME280;32541;46.298;11.506;2022-11-20T02:21:24;88754.41;;;-0.70;76.26
46782;BME280;32541;46.298;11.506;2022-11-20T02:24:00;88752.69;;;-0.60;76.54
46782;BME280;32541;46.298;11.506;2022-11-20T02:26:28;88758.94;;;-0.65;76.06
46782;BME280;32541;46.298;11.506;2022-11-20T02:28:55;88752.03;;;-0.74;75.85
46782;BME280;32541;46.298;11.506;2022-11-20T02:31:20;88763.44;;;-0.68;74.79
46782;BME280;32541;46.298;11.506;2022-11-20T02:33:46;88760.47;;;-0.77;75.62
46782;BME280;32541;46.298;11.506;2022-11-20T02:36:14;88760.09;;;-0.81;76.64
46782;BME280;32541;46.298;11.506;2022-11-20T02:38:40;88764.25;;;-0.80;76.34
46782;BME280;32541;46.298;11.506;2022-11-20T02:41:05;88755.28;;;-0.75;75.38
46782;BME280;32541;46.298;11.506;2022-11-20T02:43:31;88766.13;;;-0.68;75.54
46782;BME280;32541;46.298;11.506;2022-11-20T02:45:56;88775.59;;;-0.74;75.27
46782;BME280;32541;46.298;11.506;2022-11-20T02:48:21;88765.88;;;-0.77;75.38
46782;BME280;32541;46.298;11.506;2022-11-20T02:50:47;88763.38;;;-0.75;75.76
46782;BME280;32541;46.298;11.506;2022-11-20T02:53:12;88776.16;;;-0.76;75.14
46782;BME280;32541;46.298;11.506;2022-11-20T02:55:38;88772.72;;;-0.76;74.79
46782;BME280;32541;46.298;11.506;2022-11-20T02:58:03;88765.81;;;-0.85;75.04
46782;BME280;32541;46.298;11.506;2022-11-20T03:00:28;88771.34;;;-0.90;75.34
46782;BME280;32541;46.298;11.506;2022-11-20T03:02:54;88768.25;;;-0.94;75.42
46782;BME280;32541;46.298;11.506;2022-11-20T03:05:19;88769.38;;;-0.90;75.49
46782;BME280;32541;46.298;11.506;2022-11-20T03:07:44;88773.13;;;-0.93;74.97
46782;BME280;32541;46.298;11.506;2022-11-20T03:10:10;88768.25;;;-0.94;76.39
46782;BME280;32541;46.298;11.506;2022-11-20T03:12:35;88768.94;;;-1.01;76.22
46782;BME280;32541;46.298;11.506;2022-11-20T03:15:01;88765.19;;;-0.98;75.86
46782;BME280;32541;46.298;11.506;2022-11-20T03:17:26;88771.22;;;-1.05;75.79
46782;BME280;32541;46.298;11.506;2022-11-20T03:19:52;88773.19;;;-1.06;75.73
46782;BME280;32541;46.298;11.506;2022-11-20T03:22:17;88770.75;;;-0.96;75.49
46782;BME280;32541;46.298;11.506;2022-11-20T03:24:42;88772.59;;;-0.91;75.40
46782;BME280;32541;46.298;11.506;2022-11-20T03:27:08;88763.72;;;-0.99;75.83
46782;BME280;32541;46.298;11.506;2022-11-20T03:29:35;88758.91;;;-0.93;76.34
46782;BME280;32541;46.298;11.506;2022-11-20T03:32:00;88764.19;;;-1.08;76.79
46782;BME280;32541;46.298;11.506;2022-11-20T03:34:25;88768.47;;;-1.13;76.17
46782;BME280;32541;46.298;11.506;2022-11-20T03:36:51;88771.50;;;-1.17;75.62
46782;BME280;32541;46.298;11.506;2022-11-20T03:39:16;88775.25;;;-0.99;75.25
46782;BME280;32541;46.298;11.506;2022-11-20T03:41:41;88774.69;;;-0.97;74.58
46782;BME280;32541;46.298;11.506;2022-11-20T03:44:09;88775.69;;;-1.08;77.05
46782;BME280;32541;46.298;11.506;2022-11-20T03:46:35;88783.59;;;-1.10;77.24
46782;BME280;32541;46.298;11.506;2022-11-20T03:49:01;88781.00;;;-1.16;76.59
46782;BME280;32541;46.298;11.506;2022-11-20T03:51:31;88791.75;;;-1.02;76.42
46782;BME280;32541;46.298;11.506;2022-11-20T03:54:02;88782.56;;;-1.07;75.97
46782;BME280;32541;46.298;11.506;2022-11-20T03:56:29;88795.97;;;-1.15;76.48
46782;BME280;32541;46.298;11.506;2022-11-20T03:58:55;88788.00;;;-1.20;76.50
46782;BME280;32541;46.298;11.506;2022-11-20T04:01:26;88786.34;;;-1.23;76.81
46782;BME280;32541;46.298;11.506;2022-11-20T04:03:54;88796.22;;;-1.26;75.79
46782;BME280;32541;46.298;11.506;2022-11-20T04:06:22;88791.75;;;-1.23;76.39
46782;BME280;32541;46.298;11.506;2022-11-20T04:08:48;88804.09;;;-1.28;77.06
46782;BME280;32541;46.298;11.506;2022-11-20T04:11:28;88800.09;;;-1.34;76.96
46782;BME280;32541;46.298;11.506;2022-11-20T04:13:57;88796.66;;;-1.35;77.09
46782;BME280;32541;46.298;11.506;2022-11-20T04:16:23;88797.53;;;-1.40;77.47
46782;BME280;32541;46.298;11.506;2022-11-20T04:18:57;88804.22;;;-1.33;78.21
46782;BME280;32541;46.298;11.506;2022-11-20T04:21:23;88799.78;;;-1.31;77.68
46782;BME280;32541;46.298;11.506;2022-11-20T04:23:50;88804.94;;;-1.33;76.59
46782;BME280;32541;46.298;11.506;2022-11-20T04:26:15;88800.81;;;-1.34;77.39
46782;BME280;32541;46.298;11.506;2022-11-20T04:28:41;88794.47;;;-1.36;76.75
46782;BME280;32541;46.298;11.506;2022-11-20T04:31:39;88796.91;;;-1.46;77.83
46782;BME280;32541;46.298;11.506;2022-11-20T04:34:02;88803.97;;;-1.43;77.05
46782;BME280;32541;46.298;11.506;2022-11-20T04:36:29;88801.16;;;-1.50;76.92
46782;BME280;32541;46.298;11.506;2022-11-20T04:39:00;88802.50;;;-1.44;76.95
46782;BME280;32541;46.298;11.506;2022-11-20T04:41:32;88797.97;;;-1.49;77.54
46782;BME280;32541;46.298;11.506;2022-11-20T04:43:59;88802.19;;;-1.40;77.78
46782;BME280;32541;46.298;11.506;2022-11-20T04:46:28;88799.00;;;-1.52;77.77
46782;BME280;32541;46.298;11.506;2022-11-20T04:48:54;88793.41;;;-1.54;77.60
46782;BME280;32541;46.298;11.506;2022-11-20T04:51:19;88808.13;;;-1.55;77.58
46782;BME280;32541;46.298;11.506;2022-11-20T04:53:45;88804.59;;;-1.50;77.75
46782;BME280;32541;46.298;11.506;2022-11-20T04:56:11;88803.38;;;-1.62;78.01
46782;BME280;32541;46.298;11.506;2022-11-20T04:58:38;88800.81;;;-1.67;78.45
46782;BME280;32541;46.298;11.506;2022-11-20T05:01:10;88803.19;;;-1.64;78.15
46782;BME280;32541;46.298;11.506;2022-11-20T05:03:36;88802.03;;;-1.69;78.70
46782;BME280;32541;46.298;11.506;2022-11-20T05:06:04;88803.41;;;-1.75;79.04
46782;BME280;32541;46.298;11.506;2022-11-20T05:08:30;88803.41;;;-1.75;78.60
46782;BME280;32541;46.298;11.506;2022-11-20T05:11:16;88807.44;;;-1.69;78.09
46782;BME280;32541;46.298;11.506;2022-11-20T05:13:42;88802.44;;;-1.64;78.00
46782;BME280;32541;46.298;11.506;2022-11-20T05:16:10;88807.22;;;-1.57;77.45
46782;BME280;32541;46.298;11.506;2022-11-20T05:18:36;88802.75;;;-1.55;77.82
46782;BME280;32541;46.298;11.506;2022-11-20T05:21:02;88810.41;;;-1.59;77.68
46782;BME280;32541;46.298;11.506;2022-11-20T05:23:30;88813.13;;;-1.59;77.69
46782;BME280;32541;46.298;11.506;2022-11-20T05:25:56;88817.91;;;-1.65;77.30
46782;BME280;32541;46.298;11.506;2022-11-20T05:28:22;88822.03;;;-1.64;77.19
46782;BME280;32541;46.298;11.506;2022-11-20T05:30:48;88816.25;;;-1.68;77.32
46782;BME280;32541;46.298;11.506;2022-11-20T05:33:14;88816.84;;;-1.62;77.31
46782;BME280;32541;46.298;11.506;2022-11-20T05:35:40;88817.25;;;-1.58;77.27
46782;BME280;32541;46.298;11.506;2022-11-20T05:38:05;88818.94;;;-1.68;77.38
46782;BME280;32541;46.298;11.506;2022-11-20T05:40:31;88824.63;;;-1.72;77.75
46782;BME280;32541;46.298;11.506;2022-11-20T05:42:56;88831.06;;;-1.75;77.59
46782;BME280;32541;46.298;11.506;2022-11-20T05:45:21;88827.56;;;-1.70;77.71
46782;BME280;32541;46.298;11.506;2022-11-20T05:47:47;88833.66;;;-1.69;77.37
46782;BME280;32541;46.298;11.506;2022-11-20T05:50:13;88826.31;;;-1.82;78.50
46782;BME280;32541;46.298;11.506;2022-11-20T05:52:39;88832.09;;;-1.78;77.72
46782;BME280;32541;46.298;11.506;2022-11-20T05:55:05;88830.16;;;-1.77;77.33
46782;BME280;32541;46.298;11.506;2022-11-20T05:57:31;88831.91;;;-1.80;77.49
46782;BME280;32541;46.298;11.506;2022-11-20T05:59:56;88832.84;;;-1.77;77.00
46782;BME280;32541;46.298;11.506;2022-11-20T06:02:22;88834.19;;;-1.84;77.58
46782;BME280;32541;46.298;11.506;2022-11-20T06:04:47;88839.38;;;-1.73;77.56
46782;BME280;32541;46.298;11.506;2022-11-20T06:07:12;88843.00;;;-1.70;77.16
46782;BME280;32541;46.298;11.506;2022-11-20T06:09:38;88846.84;;;-1.79;78.86
46782;BME280;32541;46.298;11.506;2022-11-20T06:12:03;88852.53;;;-1.82;78.70
46782;BME280;32541;46.298;11.506;2022-11-20T06:14:29;88850.03;;;-1.67;77.23
46782;BME280;32541;46.298;11.506;2022-11-20T06:16:54;88848.06;;;-1.66;77.10
46782;BME280;32541;46.298;11.506;2022-11-20T06:19:19;88847.78;;;-1.76;77.64
46782;BME280;32541;46.298;11.506;2022-11-20T06:21:47;88848.63;;;-1.81;78.09
46782;BME280;32541;46.298;11.506;2022-11-20T06:24:13;88849.63;;;-1.71;77.08
46782;BME280;32541;46.298;11.506;2022-11-20T06:26:38;88859.06;;;-1.78;77.48
46782;BME280;32541;46.298;11.506;2022-11-20T06:29:04;88857.81;;;-1.77;77.52
46782;BME280;32541;46.298;11.506;2022-11-20T06:31:29;88862.16;;;-1.87;78.36
46782;BME280;32541;46.298;11.506;2022-11-20T06:33:57;88865.28;;;-1.83;77.84
46782;BME280;32541;46.298;11.506;2022-11-20T06:36:23;88866.63;;;-1.76;77.79
46782;BME280;32541;46.298;11.506;2022-11-20T06:38:49;88862.91;;;-1.73;78.12
46782;BME280;32541;46.298;11.506;2022-11-20T06:41:19;88872.63;;;-1.83;78.33
46782;BME280;32541;46.298;11.506;2022-11-20T06:43:45;88869.94;;;-1.83;78.55
46782;BME280;32541;46.298;11.506;2022-11-20T06:46:12;88871.28;;;-1.77;78.46
46782;BME280;32541;46.298;11.506;2022-11-20T06:48:38;88880.31;;;-1.74;78.05
46782;BME280;32541;46.298;11.506;2022-11-20T06:51:05;88886.41;;;-1.74;77.93
46782;BME280;32541;46.298;11.506;2022-11-20T06:53:31;88881.97;;;-1.71;77.52
46782;BME280;32541;46.298;11.506;2022-11-20T06:55:57;88885.28;;;-1.78;78.57
46782;BME280;32541;46.298;11.506;2022-11-20T06:58:25;88882.56;;;-1.78;78.42
46782;BME280;32541;46.298;11.506;2022-11-20T07:00:51;88887.03;;;-1.81;77.87
46782;BME280;32541;46.298;11.506;2022-11-20T07:03:16;88886.00;;;-1.78;77.96
46782;BME280;32541;46.298;11.506;2022-11-20T07:05:42;88883.72;;;-1.74;77.72
46782;BME280;32541;46.298;11.506;2022-11-20T07:08:08;88882.81;;;-1.76;78.10
46782;BME280;32541;46.298;11.506;2022-11-20T07:10:34;88888.81;;;-1.70;77.71
46782;BME280;32541;46.298;11.506;2022-11-20T07:12:59;88890.47;;;-1.67;77.77
46782;BME280;32541;46.298;11.506;2022-11-20T07:15:25;88896.25;;;-1.63;81.66
46782;BME280;32541;46.298;11.506;2022-11-20T07:17:51;88889.44;;;-1.64;80.67
46782;BME280;32541;46.298;11.506;2022-11-20T07:20:17;88892.00;;;-1.58;80.32
46782;BME280;32541;46.298;11.506;2022-11-20T07:22:42;88892.41;;;-1.54;79.33
46782;BME280;32541;46.298;11.506;2022-11-20T07:25:09;88895.31;;;-0.10;76.00
46782;BME280;32541;46.298;11.506;2022-11-20T07:27:35;88897.09;;;1.39;69.51
46782;BME280;32541;46.298;11.506;2022-11-20T07:30:00;88890.09;;;3.12;65.08
46782;BME280;32541;46.298;11.506;2022-11-20T07:32:26;88888.81;;;4.93;58.61
46782;BME280;32541;46.298;11.506;2022-11-20T07:34:52;88895.81;;;7.30;54.88
46782;BME280;32541;46.298;11.506;2022-11-20T07:37:17;88885.94;;;9.15;49.25
46782;BME280;32541;46.298;11.506;2022-11-20T07:39:43;88883.69;;;10.98;45.92
46782;BME280;32541;46.298;11.506;2022-11-20T07:42:08;88885.84;;;12.34;41.92
46782;BME280;32541;46.298;11.506;2022-11-20T07:44:34;88880.97;;;13.23;39.43
46782;BME280;32541;46.298;11.506;2022-11-20T07:47:00;88885.94;;;13.68;36.65
46782;BME280;32541;46.298;11.506;2022-11-20T07:49:25;88888.47;;;13.91;35.77
46782;BME280;32541;46.298;11.506;2022-11-20T07:51:51;88876.38;;;14.41;34.59
46782;BME280;32541;46.298;11.506;2022-11-20T07:54:18;88881.63;;;14.80;34.09
46782;BME280;32541;46.298;11.506;2022-11-20T07:56:44;88882.66;;;15.33;33.65
46782;BME280;32541;46.298;11.506;2022-11-20T07:59:09;88889.53;;;15.64;32.94
46782;BME280;32541;46.298;11.506;2022-11-20T08:01:37;88888.09;;;16.29;32.00
46782;BME280;32541;46.298;11.506;2022-11-20T08:04:02;88894.13;;;16.75;32.07
46782;BME280;32541;46.298;11.506;2022-11-20T08:06:28;88891.63;;;17.00;31.70
46782;BME280;32541;46.298;11.506;2022-11-20T08:08:53;88886.31;;;16.36;32.55
46782;BME280;32541;46.298;11.506;2022-11-20T08:11:19;88890.22;;;16.82;32.04
46782;BME280;32541;46.298;11.506;2022-11-20T08:14:02;88898.75;;;16.01;31.05
46782;BME280;32541;46.298;11.506;2022-11-20T08:16:41;88903.56;;;15.68;32.19
46782;BME280;32541;46.298;11.506;2022-11-20T08:19:07;88896.53;;;14.73;32.29
46782;BME280;32541;46.298;11.506;2022-11-20T08:21:33;88900.22;;;12.96;35.44
46782;BME280;32541;46.298;11.506;2022-11-20T08:23:59;88909.63;;;12.66;36.49
46782;BME280;32541;46.298;11.506;2022-11-20T08:26:25;88909.38;;;12.87;36.09
46782;BME280;32541;46.298;11.506;2022-11-20T08:28:55;88911.88;;;11.94;36.38
46782;BME280;32541;46.298;11.506;2022-11-20T08:31:22;88914.31;;;11.64;37.91
46782;BME280;32541;46.298;11.506;2022-11-20T08:33:48;88907.56;;;11.31;39.13
46782;BME280;32541;46.298;11.506;2022-11-20T08:36:13;88915.97;;;11.09;38.87
46782;BME280;32541;46.298;11.506;2022-11-20T08:38:39;88913.91;;;10.87;40.15
46782;BME280;32541;46.298;11.506;2022-11-20T08:41:05;88907.56;;;10.17;40.71
46782;BME280;32541;46.298;11.506;2022-11-20T08:43:50;88912.75;;;9.47;42.68
46782;BME280;32541;46.298;11.506;2022-11-20T08:46:16;88912.53;;;9.55;42.97
46782;BME280;32541;46.298;11.506;2022-11-20T08:48:41;88908.84;;;9.50;43.35
46782;BME280;32541;46.298;11.506;2022-11-20T08:51:07;88910.66;;;9.36;43.08
46782;BME280;32541;46.298;11.506;2022-11-20T08:53:33;88913.72;;;9.52;42.28
46782;BME280;32541;46.298;11.506;2022-11-20T08:55:58;88913.50;;;9.59;42.50
46782;BME280;32541;46.298;11.506;2022-11-20T08:58:25;88912.06;;;8.85;44.29
46782;BME280;32541;46.298;11.506;2022-11-20T09:00:51;88922.50;;;8.27;46.45
46782;BME280;32541;46.298;11.506;2022-11-20T09:03:17;88910.59;;;8.63;44.30
46782;BME280;32541;46.298;11.506;2022-11-20T09:05:42;88909.59;;;8.58;46.58
46782;BME280;32541;46.298;11.506;2022-11-20T09:08:08;88912.59;;;9.24;45.95
46782;BME280;32541;46.298;11.506;2022-11-20T09:10:34;88912.03;;;9.68;44.69
46782;BME280;32541;46.298;11.506;2022-11-20T09:13:00;88917.41;;;9.98;42.82
46782;BME280;32541;46.298;11.506;2022-11-20T09:15:25;88903.97;;;9.60;42.85
46782;BME280;32541;46.298;11.506;2022-11-20T09:17:56;88911.56;;;9.29;43.78
46782;BME280;32541;46.298;11.506;2022-11-20T09:20:22;88905.59;;;9.54;43.99
46782;BME280;32541;46.298;11.506;2022-11-20T09:22:48;88901.97;;;9.93;42.50
46782;BME280;32541;46.298;11.506;2022-11-20T09:25:13;88910.97;;;10.27;41.40
46782;BME280;32541;46.298;11.506;2022-11-20T09:27:39;88913.00;;;9.72;42.85
46782;BME280;32541;46.298;11.506;2022-11-20T09:30:07;88905.66;;;9.02;44.84
46782;BME280;32541;46.298;11.506;2022-11-20T09:32:32;88911.44;;;8.25;46.88
46782;BME280;32541;46.298;11.506;2022-11-20T09:34:57;88910.50;;;8.51;46.17
46782;BME280;32541;46.298;11.506;2022-11-20T09:37:23;88915.34;;;8.03;47.95
46782;BME280;32541;46.298;11.506;2022-11-20T09:39:48;88909.56;;;8.68;45.58
46782;BME280;32541;46.298;11.506;2022-11-20T09:42:37;88901.59;;;7.62;46.79
46782;BME280;32541;46.298;11.506;2022-11-20T09:45:33;88908.06;;;6.63;49.56
46782;BME280;32541;46.298;11.506;2022-11-20T09:48:14;88908.13;;;6.83;49.25
46782;BME280;32541;46.298;11.506;2022-11-20T09:56:11;88891.94;;;7.61;48.50
46782;BME280;32541;46.298;11.506;2022-11-20T09:58:57;88893.97;;;8.40;46.24
46782;BME280;32541;46.298;11.506;2022-11-20T10:01:34;88888.72;;;8.84;45.97
46782;BME280;32541;46.298;11.506;2022-11-20T10:04:14;88882.31;;;9.43;43.39
46782;BME280;32541;46.298;11.506;2022-11-20T10:06:50;88885.00;;;9.85;42.64
46782;BME280;32541;46.298;11.506;2022-11-20T10:09:29;88882.28;;;9.64;42.28
46782;BME280;32541;46.298;11.506;2022-11-20T10:25:42;88876.50;;;8.45;42.48
46782;BME280;32541;46.298;11.506;2022-11-20T10:31:03;88883.84;;;7.73;45.25
46782;BME280;32541;46.298;11.506;2022-11-20T10:33:34;88882.41;;;7.81;44.56
46782;BME280;32541;46.298;11.506;2022-11-20T10:36:21;88881.81;;;7.93;44.98
46782;BME280;32541;46.298;11.506;2022-11-20T10:38:53;88877.72;;;8.22;46.20
46782;BME280;32541;46.298;11.506;2022-11-20T10:41:25;88873.00;;;9.06;44.30
46782;BME280;32541;46.298;11.506;2022-11-20T10:44:04;88873.78;;;8.75;42.69
46782;BME280;32541;46.298;11.506;2022-11-20T10:46:40;88865.00;;;8.27;43.90
46782;BME280;32541;46.298;11.506;2022-11-20T10:49:15;88866.50;;;8.09;42.77
46782;BME280;32541;46.298;11.506;2022-11-20T10:56:50;88846.19;;;9.46;39.56
46782;BME280;32541;46.298;11.506;2022-11-20T11:01:44;88850.03;;;9.11;39.07
46782;BME280;32541;46.298;11.506;2022-11-20T11:04:23;88837.94;;;8.83;40.47
46782;BME280;32541;46.298;11.506;2022-11-20T11:06:58;88840.50;;;9.12;40.09
46782;BME280;32541;46.298;11.506;2022-11-20T11:09:33;88834.22;;;9.75;38.41
46782;BME280;32541;46.298;11.506;2022-11-20T11:11:59;88841.31;;;9.89;38.31
46782;BME280;32541;46.298;11.506;2022-11-20T11:14:25;88835.34;;;9.93;38.56
46782;BME280;32541;46.298;11.506;2022-11-20T11:16:55;88831.13;;;9.80;37.23
46782;BME280;32541;46.298;11.506;2022-11-20T11:19:21;88826.25;;;9.79;37.27
46782;BME280;32541;46.298;11.506;2022-11-20T11:21:52;88813.59;;;9.74;37.23
46782;BME280;32541;46.298;11.506;2022-11-20T11:24:23;88812.47;;;9.34;39.80
46782;BME280;32541;46.298;11.506;2022-11-20T11:26:56;88813.59;;;10.30;37.75
46782;BME280;32541;46.298;11.506;2022-11-20T11:29:22;88813.13;;;9.56;37.31
46782;BME280;32541;46.298;11.506;2022-11-20T11:31:49;88818.19;;;9.71;37.16
46782;BME280;32541;46.298;11.506;2022-11-20T11:34:16;88818.81;;;9.37;36.96
46782;BME280;32541;46.298;11.506;2022-11-20T11:36:51;88813.47;;;9.50;39.35
46782;BME280;32541;46.298;11.506;2022-11-20T11:39:19;88806.94;;;9.88;36.20
46782;BME280;32541;46.298;11.506;2022-11-20T11:41:46;88803.19;;;9.72;36.32
46782;BME280;32541;46.298;11.506;2022-11-20T11:44:18;88795.88;;;9.65;35.97
46782;BME280;32541;46.298;11.506;2022-11-20T11:47:04;88801.41;;;10.56;38.04
46782;BME280;32541;46.298;11.506;2022-11-20T11:49:30;88787.59;;;10.10;34.68
46782;BME280;32541;46.298;11.506;2022-11-20T11:52:08;88790.22;;;9.96;36.38
46782;BME280;32541;46.298;11.506;2022-11-20T11:54:55;88788.84;;;9.29;37.35
46782;BME280;32541;46.298;11.506;2022-11-20T12:02:53;88789.94;;;9.15;37.88
46782;BME280;32541;46.298;11.506;2022-11-20T12:05:44;88779.97;;;9.19;37.26
46782;BME280;32541;46.298;11.506;2022-11-20T12:16:03;88773.16;;;11.39;36.90
46782;BME280;32541;46.298;11.506;2022-11-20T12:18:29;88781.94;;;10.52;34.69
46782;BME280;32541;46.298;11.506;2022-11-20T12:21:32;88783.16;;;9.93;35.23
46782;BME280;32541;46.298;11.506;2022-11-20T12:24:27;88772.84;;;9.26;36.76
46782;BME280;32541;46.298;11.506;2022-11-20T12:27:02;88780.75;;;9.10;37.38
46782;BME280;32541;46.298;11.506;2022-11-20T12:32:43;88771.19;;;10.21;37.33
46782;BME280;32541;46.298;11.506;2022-11-20T12:35:36;88761.25;;;10.74;35.84
46782;BME280;32541;46.298;11.506;2022-11-20T12:44:13;88751.97;;;11.04;34.60
46782;BME280;32541;46.298;11.506;2022-11-20T12:50:00;88757.06;;;10.62;36.53
46782;BME280;32541;46.298;11.506;2022-11-20T13:00:18;88744.81;;;10.99;37.28
46782;BME280;32541;46.298;11.506;2022-11-20T13:05:41;88747.38;;;10.84;37.48
46782;BME280;32541;46.298;11.506;2022-11-20T13:08:33;88746.78;;;11.22;36.08
46782;BME280;32541;46.298;11.506;2022-11-20T13:13:42;88742.38;;;11.05;36.01
46782;BME280;32541;46.298;11.506;2022-11-20T13:16:58;88742.44;;;10.82;36.68
46782;BME280;32541;46.298;11.506;2022-11-20T13:19:02;88734.38;;;11.35;36.13
46782;BME280;32541;46.298;11.506;2022-11-20T13:24:23;88734.53;;;11.37;36.12
46782;BME280;32541;46.298;11.506;2022-11-20T13:29:33;88733.88;;;11.75;36.45
46782;BME280;32541;46.298;11.506;2022-11-20T13:32:25;88731.97;;;11.91;37.75
46782;BME280;32541;46.298;11.506;2022-11-20T13:35:00;88730.09;;;12.07;35.79
46782;BME280;32541;46.298;11.506;2022-11-20T13:37:35;88727.25;;;12.33;35.90
46782;BME280;32541;46.298;11.506;2022-11-20T13:42:45;88710.88;;;12.62;36.63
46782;BME280;32541;46.298;11.506;2022-11-20T13:45:25;88711.16;;;12.81;34.02
46782;BME280;32541;46.298;11.506;2022-11-20T13:47:52;88710.94;;;12.77;34.44
46782;BME280;32541;46.298;11.506;2022-11-20T13:50:19;88721.50;;;11.26;38.37
46782;BME280;32541;46.298;11.506;2022-11-20T13:55:37;88707.81;;;11.39;35.73
46782;BME280;32541;46.298;11.506;2022-11-20T14:00:45;88715.84;;;11.60;38.09
46782;BME280;32541;46.298;11.506;2022-11-20T14:03:21;88713.16;;;11.74;38.13
46782;BME280;32541;46.298;11.506;2022-11-20T14:06:02;88712.81;;;11.93;37.13
46782;BME280;32541;46.298;11.506;2022-11-20T14:08:42;88709.59;;;12.10;38.06
46782;BME280;32541;46.298;11.506;2022-11-20T14:11:21;88704.19;;;12.12;36.99
46782;BME280;32541;46.298;11.506;2022-11-20T14:14:03;88714.50;;;12.25;36.01
46782;BME280;32541;46.298;11.506;2022-11-20T14:16:31;88709.91;;;12.16;38.18
46782;BME280;32541;46.298;11.506;2022-11-20T14:18:58;88712.44;;;12.12;38.94
46782;BME280;32541;46.298;11.506;2022-11-20T14:21:42;88711.94;;;12.02;39.23
46782;BME280;32541;46.298;11.506;2022-11-20T14:24:11;88709.94;;;11.91;38.25
46782;BME280;32541;46.298;11.506;2022-11-20T14:26:41;88707.81;;;11.90;37.97